Time;durP1;ratioP1;P1;durP2;ratioP2;P2;SDS_P1;SDS_P2;PMS_P1;PMS_P2;Temp;Humidity;BMP_temperature;BMP_pressure;BME280_temperature;BME280_humidity;BME280_pressure;Samples;Min_cycle;Max_cycle;Signal;HPM_P1;HPM_P2
2024/03/15 00:00:14;;;;;;;5.13;3.67;;;22.90;99.90;;;;;;5034689;28;20034;-55
2024/03/15 00:02:39;;;;;;;4.72;3.75;;;22.90;99.90;;;;;;5034114;28;20120;-55
2024/03/15 00:05:06;;;;;;;6.50;4.03;;;22.90;99.90;;;;;;5034306;28;20506;-55
2024/03/15 00:07:31;;;;;;;5.55;4.55;;;22.90;99.90;;;;;;5033881;28;20378;-55
2024/03/15 00:10:00;;;;;;;5.00;3.90;;;22.90;99.90;;;;;;5034175;28;20037;-56
2024/03/15 00:12:26;;;;;;;7.22;4.40;;;22.80;99.90;;;;;;5034567;28;20083;-56
2024/03/15 00:14:52;;;;;;;5.75;3.85;;;22.90;99.90;;;;;;5034059;28;20033;-56
2024/03/15 00:17:17;;;;;;;4.28;3.45;;;22.90;99.90;;;;;;5016468;28;20467;-55
2024/03/15 00:19:43;;;;;;;5.25;3.85;;;22.90;99.90;;;;;;5033857;28;20029;-56
2024/03/15 00:22:09;;;;;;;5.45;3.63;;;22.80;99.90;;;;;;5033878;28;20025;-57
2024/03/15 00:24:36;;;;;;;5.97;4.15;;;22.80;99.90;;;;;;5034078;28;20359;-57
2024/03/15 00:27:02;;;;;;;4.80;3.63;;;22.80;99.90;;;;;;5033901;28;20109;-56
2024/03/15 00:29:29;;;;;;;5.05;3.45;;;22.80;99.90;;;;;;5033915;28;20041;-56
2024/03/15 00:31:59;;;;;;;4.53;3.78;;;22.80;99.90;;;;;;5033899;28;20021;-56
2024/03/15 00:34:25;;;;;;;5.18;3.50;;;22.80;99.90;;;;;;5033751;28;20029;-56
2024/03/15 00:36:52;;;;;;;4.57;3.22;;;22.80;99.90;;;;;;5033699;28;20052;-56
2024/03/15 00:39:20;;;;;;;4.00;3.25;;;22.80;99.90;;;;;;5033753;28;20017;-57
2024/03/15 00:41:46;;;;;;;;;;;22.80;99.90;;;;;;5034060;28;20113;-56
2024/03/15 00:44:12;;;;;;;3.97;3.50;;;22.80;99.90;;;;;;5033453;28;19905;-56
2024/03/15 00:46:38;;;;;;;4.18;3.58;;;22.80;99.90;;;;;;5033393;28;20025;-56
2024/03/15 00:49:04;;;;;;;7.20;3.28;;;22.80;99.90;;;;;;5033350;28;20048;-57
2024/03/15 00:51:30;;;;;;;5.22;3.30;;;22.80;99.90;;;;;;5015985;28;20030;-56
2024/03/15 00:53:56;;;;;;;4.38;3.25;;;22.80;99.90;;;;;;5033358;28;20032;-55
2024/03/15 00:56:22;;;;;;;4.18;3.58;;;22.70;99.90;;;;;;5033337;28;20462;-55
2024/03/15 00:58:48;;;;;;;3.92;3.05;;;22.70;99.90;;;;;;5033377;28;20120;-56
2024/03/15 01:01:13;;;;;;;5.50;3.72;;;22.70;99.90;;;;;;5063474;23;20126;-44
2024/03/15 01:03:39;;;;;;;5.35;4.22;;;22.70;99.90;;;;;;5093456;28;20056;-44
2024/03/15 01:06:07;;;;;;;4.28;3.28;;;22.70;99.90;;;;;;5093172;28;20020;-45
2024/03/15 01:08:33;;;;;;;4.38;3.40;;;22.70;99.90;;;;;;5093561;28;20384;-46
2024/03/15 01:11:00;;;;;;;4.07;3.30;;;22.70;99.90;;;;;;5093505;28;20480;-44
2024/03/15 01:13:26;;;;;;;4.53;3.38;;;22.70;99.90;;;;;;5093236;28;20043;-44
2024/03/15 01:15:51;;;;;;;4.75;3.17;;;22.70;99.90;;;;;;5093229;28;20472;-45
2024/03/15 01:18:17;;;;;;;4.00;3.10;;;22.70;99.90;;;;;;5093239;28;20422;-45
2024/03/15 01:20:43;;;;;;;4.32;3.10;;;22.70;99.90;;;;;;5092352;28;20024;-44
2024/03/15 01:23:09;;;;;;;4.25;3.40;;;22.70;99.90;;;;;;5092981;28;20494;-44
2024/03/15 01:25:35;;;;;;;5.78;3.70;;;22.70;99.90;;;;;;5093082;28;20063;-45
2024/03/15 01:28:02;;;;;;;5.47;3.38;;;22.70;99.90;;;;;;5083970;28;20087;-44
2024/03/15 01:30:30;;;;;;;4.60;3.70;;;22.70;99.90;;;;;;5072763;28;20107;-44
2024/03/15 01:32:56;;;;;;;;;;;22.70;99.90;;;;;;5085970;28;20496;-45
2024/03/15 01:35:22;;;;;;;11.60;4.13;;;22.70;99.90;;;;;;5069785;28;19934;-46
2024/03/15 01:37:48;;;;;;;9.95;3.67;;;22.70;99.90;;;;;;5082312;28;20043;-45
2024/03/15 01:40:15;;;;;;;4.85;2.53;;;22.70;99.90;;;;;;5080005;28;20484;-45
2024/03/15 01:42:41;;;;;;;8.57;3.53;;;22.70;99.90;;;;;;5077540;28;20484;-46
2024/03/15 01:45:09;;;;;;;6.82;3.17;;;22.70;99.90;;;;;;5078628;28;20040;-45
2024/03/15 01:47:36;;;;;;;4.97;3.70;;;22.70;99.90;;;;;;5081495;28;20491;-46
2024/03/15 01:50:02;;;;;;;4.47;3.17;;;22.70;99.90;;;;;;5078862;28;20044;-45
2024/03/15 01:52:33;;;;;;;7.15;3.25;;;22.70;99.90;;;;;;5076714;28;20020;-45
2024/03/15 01:54:59;;;;;;;4.72;3.28;;;22.70;99.90;;;;;;5082305;28;20029;-44
2024/03/15 01:57:25;;;;;;;7.05;3.72;;;22.70;99.90;;;;;;5077755;28;20367;-45
2024/03/15 01:59:51;;;;;;;6.90;3.60;;;22.70;99.90;;;;;;5079022;28;20452;-44
2024/03/15 02:02:16;;;;;;;6.80;3.78;;;22.70;99.90;;;;;;5089037;28;20573;-44
2024/03/15 02:04:53;;;;;;;4.25;3.10;;;22.60;99.90;;;;;;5088800;28;20024;-44
2024/03/15 02:07:27;;;;;;;6.63;3.30;;;22.70;99.90;;;;;;5085666;28;20039;-45
2024/03/15 02:09:53;;;;;;;4.35;3.50;;;22.70;99.90;;;;;;5079547;28;20508;-46
2024/03/15 02:12:19;;;;;;;8.10;3.42;;;22.70;99.90;;;;;;5089292;28;20024;-51
2024/03/15 02:14:48;;;;;;;7.85;4.30;;;22.60;99.90;;;;;;5090446;28;20074;-45
2024/03/15 02:17:17;;;;;;;9.52;3.70;;;22.60;99.90;;;;;;5085594;28;20447;-44
2024/03/15 02:19:47;;;;;;;4.63;3.35;;;22.70;99.90;;;;;;5082415;28;20016;-44
2024/03/15 02:22:13;;;;;;;7.38;3.80;;;22.70;99.90;;;;;;5083544;28;20028;-45
2024/03/15 02:24:40;;;;;;;5.70;3.22;;;22.70;99.90;;;;;;5085686;28;20099;-44
2024/03/15 02:27:07;;;;;;;6.60;3.28;;;22.60;99.90;;;;;;5088573;28;20109;-45
2024/03/15 02:29:34;;;;;;;7.13;4.20;;;22.60;99.90;;;;;;5084103;28;20214;-44
2024/03/15 02:31:59;;;;;;;6.05;3.30;;;22.60;99.90;;;;;;5085248;28;20028;-45
2024/03/15 02:34:25;;;;;;;6.00;3.60;;;22.60;99.90;;;;;;5082900;28;20071;-45
2024/03/15 02:36:51;;;;;;;5.28;3.25;;;22.70;99.90;;;;;;5076704;28;20360;-46
2024/03/15 02:39:19;;;;;;;4.07;3.33;;;22.60;99.90;;;;;;5075467;28;20103;-45
2024/03/15 02:41:45;;;;;;;6.93;3.80;;;22.60;99.90;;;;;;5081262;28;20427;-44
2024/03/15 02:44:11;;;;;;;10.23;4.05;;;22.60;99.90;;;;;;5085954;28;20028;-43
2024/03/15 02:46:37;;;;;;;8.63;3.30;;;22.60;99.90;;;;;;5087796;28;20108;-43
2024/03/15 02:49:03;;;;;;;4.75;3.97;;;22.60;99.90;;;;;;5091080;28;20036;-44
2024/03/15 02:51:30;;;;;;;7.03;3.72;;;22.60;99.90;;;;;;5090161;28;20039;-43
2024/03/15 02:53:56;;;;;;;7.50;3.47;;;22.60;99.90;;;;;;5090803;28;20024;-44
2024/03/15 02:56:22;;;;;;;6.03;4.10;;;22.60;99.90;;;;;;5091874;28;20107;-44
2024/03/15 02:58:48;;;;;;;5.57;3.45;;;22.60;99.90;;;;;;5091420;28;20020;-43
2024/03/15 03:01:14;;;;;;;7.05;3.88;;;22.50;99.90;;;;;;5093365;28;20503;-43
2024/03/15 03:03:41;;;;;;;5.00;3.75;;;22.60;99.90;;;;;;5089801;28;20035;-44
2024/03/15 03:06:08;;;;;;;5.30;3.63;;;22.60;99.90;;;;;;5093769;28;20020;-43
2024/03/15 03:08:35;;;;;;;9.27;3.83;;;22.60;99.90;;;;;;5089256;28;20054;-43
2024/03/15 03:11:06;;;;;;;5.40;3.90;;;22.50;99.90;;;;;;5094047;28;20023;-41
2024/03/15 03:13:36;;;;;;;8.95;3.90;;;22.60;99.90;;;;;;5083620;28;20032;-42
2024/03/15 03:16:02;;;;;;;5.53;3.55;;;22.50;99.90;;;;;;5077408;28;20107;-43
2024/03/15 03:18:28;;;;;;;6.22;3.50;;;22.50;99.90;;;;;;5089263;28;20123;-43
2024/03/15 03:20:57;;;;;;;6.00;4.22;;;22.50;99.90;;;;;;5083268;28;20123;-46
2024/03/15 03:23:24;;;;;;;6.45;3.85;;;22.50;99.90;;;;;;5077541;28;20024;-43
2024/03/15 03:25:50;;;;;;;4.82;3.25;;;22.40;99.90;;;;;;5074966;28;20028;-44
2024/03/15 03:28:16;;;;;;;4.70;3.90;;;22.50;99.90;;;;;;5081590;28;20062;-43
2024/03/15 03:30:43;;;;;;;4.65;3.85;;;22.50;99.90;;;;;;5094541;28;20028;-47
2024/03/15 03:33:09;;;;;;;5.70;3.88;;;22.40;99.90;;;;;;5076668;28;20077;-44
2024/03/15 03:35:34;;;;;;;5.38;3.25;;;22.40;99.90;;;;;;5094666;28;20107;-44
2024/03/15 03:38:00;;;;;;;5.25;3.58;;;22.40;99.90;;;;;;5094588;28;20104;-45
2024/03/15 03:40:26;;;;;;;4.72;3.85;;;22.40;99.90;;;;;;5094478;28;20028;-44
2024/03/15 03:42:52;;;;;;;7.80;3.85;;;22.40;99.90;;;;;;5093690;28;20012;-49
2024/03/15 03:45:19;;;;;;;4.65;3.75;;;22.40;99.90;;;;;;5094556;28;20020;-44
2024/03/15 03:47:49;;;;;;;4.43;3.45;;;22.40;99.90;;;;;;5094308;28;20016;-43
2024/03/15 03:50:18;;;;;;;5.55;3.65;;;22.40;99.90;;;;;;5093149;28;20010;-44
2024/03/15 03:52:45;;;;;;;5.20;3.67;;;22.30;99.90;;;;;;5094435;28;20016;-44
2024/03/15 03:55:11;;;;;;;4.30;3.20;;;22.40;99.90;;;;;;5094453;28;20032;-44
2024/03/15 03:57:37;;;;;;;4.93;3.05;;;22.40;99.90;;;;;;5093168;28;20035;-44
2024/03/15 04:00:22;;;;;;;5.63;3.40;;;22.30;99.90;;;;;;5094466;28;20047;-43
2024/03/15 04:02:49;;;;;;;5.18;3.53;;;22.30;99.90;;;;;;5094200;28;20079;-43
2024/03/15 04:05:20;;;;;;;5.18;3.70;;;22.30;99.90;;;;;;5094203;28;20024;-43
2024/03/15 04:07:47;;;;;;;5.55;3.67;;;22.30;99.90;;;;;;5093519;28;20028;-43
2024/03/15 04:10:14;;;;;;;4.35;3.75;;;22.30;99.90;;;;;;5094205;28;20024;-44
2024/03/15 04:12:42;;;;;;;5.82;3.38;;;22.30;99.90;;;;;;5093113;28;20020;-44
2024/03/15 04:15:10;;;;;;;3.90;3.28;;;22.30;99.90;;;;;;5094252;28;20028;-44
2024/03/15 04:17:37;;;;;;;8.98;3.38;;;22.30;99.90;;;;;;5094066;28;20426;-46
2024/03/15 04:20:06;;;;;;;6.97;3.70;;;22.30;99.90;;;;;;5092727;28;20478;-43
2024/03/15 04:22:32;;;;;;;6.32;3.15;;;22.30;99.90;;;;;;5094017;28;20027;-44
2024/03/15 04:24:59;;;;;;;6.15;3.60;;;22.30;99.90;;;;;;5094161;28;20024;-44
2024/03/15 04:27:25;;;;;;;5.55;3.42;;;22.20;99.90;;;;;;5093793;28;20035;-44
2024/03/15 04:29:55;;;;;;;6.00;3.85;;;22.30;99.90;;;;;;5093881;28;20468;-45
2024/03/15 04:32:22;;;;;;;4.85;3.30;;;22.30;99.90;;;;;;5093838;28;20028;-44
2024/03/15 04:34:47;;;;;;;5.88;3.53;;;22.20;99.90;;;;;;5092731;28;20047;-44
2024/03/15 04:37:19;;;;;;;5.07;3.50;;;22.20;99.90;;;;;;5093804;28;20048;-44
2024/03/15 04:39:45;;;;;;;3.47;3.15;;;22.20;99.90;;;;;;5093689;28;20020;-44
2024/03/15 04:42:12;;;;;;;4.80;2.83;;;22.20;99.90;;;;;;5093812;28;20519;-43
2024/03/15 04:44:38;;;;;;;4.28;3.08;;;22.20;99.90;;;;;;5093533;28;20012;-44
2024/03/15 04:47:06;;;;;;;4.95;3.08;;;22.20;99.90;;;;;;5093479;28;20757;-44
2024/03/15 04:49:32;;;;;;;4.60;3.67;;;22.20;99.90;;;;;;5093538;28;20036;-43
2024/03/15 04:51:59;;;;;;;4.47;2.90;;;22.20;99.90;;;;;;5093476;28;20463;-44
2024/03/15 04:54:25;;;;;;;4.43;3.00;;;22.20;99.90;;;;;;5092654;28;20028;-43
2024/03/15 04:56:51;;;;;;;3.40;2.95;;;22.20;99.90;;;;;;5091997;28;20023;-44
2024/03/15 04:59:17;;;;;;;5.40;3.47;;;22.20;99.90;;;;;;5093386;28;20090;-43
2024/03/15 05:01:43;;;;;;;4.47;3.20;;;22.20;99.90;;;;;;5092497;28;20103;-44
2024/03/15 05:04:09;;;;;;;3.47;3.10;;;22.20;99.90;;;;;;5093299;28;20024;-44
2024/03/15 05:06:35;;;;;;;3.97;2.80;;;22.20;99.90;;;;;;5075111;28;20016;-45
2024/03/15 05:09:02;;;;;;;3.28;2.53;;;22.20;99.90;;;;;;5092976;28;20036;-44
2024/03/15 05:11:27;;;;;;;4.15;2.85;;;22.20;99.90;;;;;;5093094;28;20028;-44
2024/03/15 05:13:54;;;;;;;5.78;3.28;;;22.10;99.90;;;;;;5093122;28;20438;-45
2024/03/15 05:16:20;;;;;;;5.07;3.17;;;22.20;99.90;;;;;;5093227;28;20038;-45
2024/03/15 05:18:45;;;;;;;5.80;3.00;;;22.20;99.90;;;;;;5093242;28;20024;-45
2024/03/15 05:21:11;;;;;;;7.57;3.30;;;22.10;99.90;;;;;;5093396;28;20075;-45
2024/03/15 05:23:37;;;;;;;5.97;3.55;;;22.10;99.90;;;;;;5092988;28;20642;-45
2024/03/15 05:26:05;;;;;;;3.50;2.72;;;22.10;99.90;;;;;;5091650;28;20493;-45
2024/03/15 05:28:35;;;;;;;4.45;3.10;;;22.10;99.90;;;;;;5092824;28;20038;-44
2024/03/15 05:31:04;;;;;;;4.60;3.20;;;22.10;99.90;;;;;;5092825;28;20099;-44
2024/03/15 05:33:34;;;;;;;5.85;3.30;;;22.10;99.90;;;;;;5092846;28;20028;-44
2024/03/15 05:36:03;;;;;;;4.55;3.22;;;22.10;99.90;;;;;;5092914;28;20103;-43
2024/03/15 05:38:31;;;;;;;3.85;2.60;;;22.10;99.90;;;;;;5092690;28;20016;-44
2024/03/15 05:40:58;;;;;;;3.88;2.83;;;22.10;99.90;;;;;;5092741;28;20035;-44
2024/03/15 05:43:24;;;;;;;5.97;2.55;;;22.10;99.90;;;;;;5092772;28;20020;-44
2024/03/15 05:45:50;;;;;;;4.35;2.80;;;22.10;99.90;;;;;;5092544;28;20020;-43
2024/03/15 05:48:16;;;;;;;3.03;2.42;;;22.10;99.90;;;;;;5092627;28;20488;-44
2024/03/15 05:50:42;;;;;;;4.25;2.80;;;22.10;99.90;;;;;;5092586;28;20027;-44
2024/03/15 05:53:07;;;;;;;4.68;2.90;;;22.10;99.90;;;;;;5092408;28;20024;-44
2024/03/15 05:55:34;;;;;;;3.60;2.67;;;22.10;99.90;;;;;;5092433;28;20020;-44
2024/03/15 05:58:01;;;;;;;4.55;2.88;;;22.00;99.90;;;;;;5092312;28;20380;-44
2024/03/15 06:00:27;;;;;;;2.97;2.55;;;22.00;99.90;;;;;;5090934;28;20020;-46
2024/03/15 06:02:53;;;;;;;3.20;2.90;;;22.00;99.90;;;;;;5092378;28;20488;-44
2024/03/15 06:05:19;;;;;;;4.15;2.83;;;22.00;99.90;;;;;;5092312;28;20024;-44
2024/03/15 06:07:45;;;;;;;3.15;2.60;;;22.00;99.90;;;;;;5089035;28;20066;-44
2024/03/15 06:10:13;;;;;;;4.70;3.15;;;22.00;99.90;;;;;;5072519;28;20064;-43
2024/03/15 06:12:39;;;;;;;4.70;3.10;;;22.00;99.90;;;;;;5071458;28;20345;-44
2024/03/15 06:15:08;;;;;;;3.72;2.67;;;22.00;99.90;;;;;;5070430;28;20047;-44
2024/03/15 06:17:33;;;;;;;3.63;2.80;;;22.00;99.90;;;;;;5071313;28;20016;-44
2024/03/15 06:19:59;;;;;;;4.28;2.63;;;22.00;99.90;;;;;;5071727;28;20032;-44
2024/03/15 06:22:25;;;;;;;6.57;3.38;;;22.00;99.90;;;;;;5071884;28;20476;-44
2024/03/15 06:24:58;;;;;;;4.13;2.78;;;22.00;99.90;;;;;;5070608;28;20380;-44
2024/03/15 06:27:24;;;;;;;3.83;2.80;;;22.00;99.90;;;;;;5071995;28;20035;-44
2024/03/15 06:29:52;;;;;;;4.40;2.95;;;22.00;99.90;;;;;;5072028;28;20106;-43
2024/03/15 06:32:25;;;;;;;3.58;3.10;;;22.00;99.90;;;;;;5071868;28;20356;-43
2024/03/15 06:34:57;;;;;;;4.18;2.58;;;21.90;99.90;;;;;;5071889;28;20036;-44
2024/03/15 06:37:27;;;;;;;3.47;3.00;;;22.00;99.90;;;;;;5071684;28;20028;-44
2024/03/15 06:42:37;;;;;;;3.95;2.83;;;22.00;99.90;;;;;;5071937;28;20033;-43
2024/03/15 06:45:08;;;;;;;4.18;2.58;;;21.90;99.90;;;;;;5071427;28;20035;-43
2024/03/15 06:47:38;;;;;;;4.13;3.10;;;21.90;99.90;;;;;;5071580;28;20508;-43
2024/03/15 06:52:41;;;;;;;3.83;3.10;;;21.90;99.90;;;;;;5071560;28;20046;-43
2024/03/15 06:55:08;;;;;;;4.47;2.75;;;21.90;99.90;;;;;;5071681;28;20020;-44
2024/03/15 06:57:37;;;;;;;3.58;2.90;;;21.90;99.90;;;;;;5071430;28;20035;-44
2024/03/15 07:00:08;;;;;;;3.30;2.88;;;21.90;99.90;;;;;;5071517;28;20020;-44
2024/03/15 07:02:36;;;;;;;3.83;3.33;;;21.90;99.90;;;;;;5071358;28;20116;-44
2024/03/15 07:05:05;;;;;;;;;;;21.90;99.90;;;;;;5071897;28;20084;-44
2024/03/15 07:07:31;;;;;;;4.28;2.85;;;21.90;99.90;;;;;;5070247;28;19904;-44
2024/03/15 07:09:56;;;;;;;4.22;2.95;;;21.90;99.90;;;;;;5071492;28;20177;-44
2024/03/15 07:12:22;;;;;;;5.22;2.92;;;21.90;99.90;;;;;;5071805;28;20017;-44
2024/03/15 07:14:49;;;;;;;3.53;2.78;;;21.90;99.90;;;;;;5071497;28;20074;-43
2024/03/15 07:17:15;;;;;;;4.18;3.17;;;21.90;99.90;;;;;;5071378;28;20024;-43
2024/03/15 07:19:41;;;;;;;3.50;3.03;;;22.00;99.90;;;;;;5074638;28;20035;-43
2024/03/15 07:22:07;;;;;;;6.78;3.55;;;22.00;99.90;;;;;;5074952;28;20429;-43
2024/03/15 07:24:35;;;;;;;4.63;3.10;;;21.90;99.90;;;;;;5073691;28;20078;-44
2024/03/15 07:27:04;;;;;;;3.13;2.75;;;22.00;99.90;;;;;;5074930;28;20078;-43
2024/03/15 07:29:30;;;;;;;4.50;2.83;;;22.00;99.90;;;;;;5074621;28;20077;-44
2024/03/15 07:31:55;;;;;;;3.20;2.50;;;22.00;99.90;;;;;;5074766;28;20020;-44
2024/03/15 07:34:22;;;;;;;3.47;2.78;;;22.00;99.90;;;;;;5075009;28;20111;-44
2024/03/15 07:36:48;;;;;;;3.95;3.08;;;22.00;99.90;;;;;;5074580;28;20035;-44
2024/03/15 07:39:14;;;;;;;5.05;3.10;;;22.00;99.90;;;;;;5074662;28;20033;-43
2024/03/15 07:41:42;;;;;;;4.05;2.90;;;22.00;99.90;;;;;;5073071;28;20029;-44
2024/03/15 07:44:09;;;;;;;3.55;2.85;;;22.00;99.90;;;;;;5073127;28;20029;-43
2024/03/15 07:46:35;;;;;;;2.97;2.47;;;22.00;99.90;;;;;;5074752;28;20124;-44
2024/03/15 07:49:01;;;;;;;3.08;2.30;;;22.00;99.90;;;;;;5074407;28;20524;-43
2024/03/15 07:51:27;;;;;;;4.90;3.10;;;22.00;99.90;;;;;;5073087;28;20025;-43
2024/03/15 07:53:52;;;;;;;6.20;2.83;;;22.00;99.90;;;;;;5074498;28;20017;-43
2024/03/15 07:56:19;;;;;;;4.53;3.08;;;22.00;99.90;;;;;;5072860;28;20032;-43
2024/03/15 07:58:45;;;;;;;6.18;2.60;;;22.00;99.90;;;;;;5074271;28;20025;-43
2024/03/15 08:01:13;;;;;;;5.13;2.90;;;22.00;99.90;;;;;;5074132;28;20458;-44
2024/03/15 08:03:41;;;;;;;3.75;2.65;;;22.00;99.90;;;;;;5074169;28;20031;-44
2024/03/15 08:06:07;;;;;;;4.88;2.90;;;22.10;99.90;;;;;;5074169;28;20020;-44
2024/03/15 08:08:32;;;;;;;2.97;2.63;;;22.10;99.90;;;;;;5072736;28;20039;-43
2024/03/15 08:11:00;;;;;;;4.38;3.42;;;22.10;99.90;;;;;;5074088;28;20460;-42
2024/03/15 08:13:27;;;;;;;4.60;2.72;;;22.10;99.90;;;;;;5072976;28;20533;-43
2024/03/15 08:16:18;;;;;;;3.28;2.60;;;22.10;99.90;;;;;;5074260;28;20025;-43
2024/03/15 08:18:47;;;;;;;4.28;2.58;;;22.10;99.90;;;;;;5073787;28;20020;-42
2024/03/15 08:21:15;;;;;;;2.92;2.58;;;22.10;99.90;;;;;;5073759;28;20477;-44
2024/03/15 08:23:44;;;;;;;4.22;3.00;;;22.10;99.90;;;;;;5073712;28;20025;-45
2024/03/15 08:26:11;;;;;;;5.15;2.97;;;22.10;99.90;;;;;;5073757;28;20037;-44
2024/03/15 08:28:37;;;;;;;4.95;2.65;;;22.10;99.90;;;;;;5073484;28;20528;-44
2024/03/15 08:31:04;;;;;;;3.00;2.53;;;22.10;99.90;;;;;;5073748;28;20154;-43
2024/03/15 08:33:30;;;;;;;3.67;3.10;;;22.10;99.90;;;;;;5073678;28;20020;-44
2024/03/15 08:35:56;;;;;;;4.97;2.67;;;22.10;99.90;;;;;;5073726;28;20269;-44
2024/03/15 08:38:23;;;;;;;3.42;2.80;;;22.10;99.90;;;;;;5073539;28;20388;-45
2024/03/15 08:40:49;;;;;;;4.15;2.63;;;22.10;99.90;;;;;;5072227;28;20376;-44
2024/03/15 08:43:15;;;;;;;3.60;2.53;;;22.10;99.90;;;;;;5073515;28;20028;-44
2024/03/15 08:45:41;;;;;;;4.47;3.08;;;22.20;99.90;;;;;;5073388;28;20020;-44
2024/03/15 08:48:07;;;;;;;2.72;2.30;;;22.20;99.90;;;;;;5073244;28;20058;-43
2024/03/15 08:50:33;;;;;;;5.13;3.38;;;22.20;99.90;;;;;;5071989;28;20048;-44
2024/03/15 08:53:03;;;;;;;3.25;2.78;;;22.20;99.90;;;;;;5072020;28;20025;-44
2024/03/15 08:55:29;;;;;;;5.15;2.97;;;22.20;99.90;;;;;;5073415;28;20097;-44
2024/03/15 08:57:56;;;;;;;3.63;2.65;;;22.20;99.90;;;;;;5073511;28;20024;-44
2024/03/15 09:00:23;;;;;;;5.03;3.10;;;22.20;99.90;;;;;;5073049;28;20369;-44
2024/03/15 09:02:49;;;;;;;2.95;2.55;;;22.20;99.90;;;;;;5072875;28;20045;-43
2024/03/15 09:05:15;;;;;;;6.43;3.30;;;22.20;99.90;;;;;;5072994;28;20479;-44
2024/03/15 09:07:41;;;;;;;6.82;4.47;;;22.20;99.90;;;;;;5071713;28;20059;-43
2024/03/15 09:10:13;;;;;;;7.35;5.15;;;22.20;99.90;;;;;;5072801;28;20033;-44
2024/03/15 09:12:43;;;;;;;6.43;4.47;;;22.20;99.90;;;;;;5072802;28;20069;-42
2024/03/15 09:15:12;;;;;;;6.28;4.15;;;22.20;99.90;;;;;;5072808;28;20052;-43
2024/03/15 09:17:38;;;;;;;7.05;4.40;;;22.30;99.90;;;;;;5071400;28;20024;-44
2024/03/15 09:20:42;;;;;;;6.63;4.57;;;22.20;99.90;;;;;;5072866;28;20021;-44
2024/03/15 09:22:57;;;;;;;7.57;5.38;;;22.20;99.90;;;;;;5067020;28;20384;-43
2024/03/15 09:25:25;;;;;;;8.52;5.30;;;22.30;99.90;;;;;;5072632;28;20024;-44
2024/03/15 09:27:54;;;;;;;10.02;5.88;;;22.30;99.90;;;;;;5072603;28;20477;-44
2024/03/15 09:30:26;;;;;;;13.32;6.63;;;22.30;99.90;;;;;;5072535;28;20070;-44
2024/03/15 09:32:53;;;;;;;6.70;5.30;;;22.30;99.90;;;;;;5072471;28;20013;-44
2024/03/15 09:35:19;;;;;;;6.03;4.75;;;22.30;99.90;;;;;;5072519;28;20031;-44
2024/03/15 09:37:50;;;;;;;10.73;5.68;;;22.30;99.90;;;;;;5071154;28;20016;-43
2024/03/15 09:40:21;;;;;;;9.23;5.68;;;22.30;99.90;;;;;;5072004;28;20059;-44
2024/03/15 09:42:48;;;;;;;6.68;5.47;;;22.30;99.90;;;;;;5072311;28;20120;-44
2024/03/15 09:45:17;;;;;;;8.57;4.93;;;22.40;99.90;;;;;;5072355;28;20031;-43
2024/03/15 09:47:50;;;;;;;7.07;5.25;;;22.40;99.90;;;;;;5071134;28;20079;-44
2024/03/15 09:50:17;;;;;;;5.78;4.47;;;22.40;99.90;;;;;;5072224;28;20118;-44
2024/03/15 09:52:44;;;;;;;6.88;4.18;;;22.40;99.90;;;;;;5072315;28;20040;-43
2024/03/15 09:55:16;;;;;;;6.60;4.60;;;22.50;99.90;;;;;;5072287;28;20506;-44
2024/03/15 09:57:44;;;;;;;6.53;4.80;;;22.50;99.90;;;;;;5072340;28;20020;-44
2024/03/15 10:00:13;;;;;;;;;;;22.50;99.90;;;;;;5072701;28;20059;-43
2024/03/15 10:02:40;;;;;;;7.53;3.95;;;22.50;99.90;;;;;;5072116;28;20287;-44
2024/03/15 10:05:07;;;;;;;;;;;22.60;99.90;;;;;;5072711;28;20020;-43
2024/03/15 10:07:34;;;;;;;7.53;4.47;;;22.60;99.90;;;;;;5072263;28;19948;-44
2024/03/15 10:10:04;;;;;;;5.07;3.50;;;22.70;99.90;;;;;;5072295;28;20033;-44
2024/03/15 10:12:30;;;;;;;7.57;4.30;;;22.70;99.90;;;;;;5070811;28;20021;-44
2024/03/15 10:14:57;;;;;;;6.47;4.70;;;22.70;99.90;;;;;;5072187;28;20543;-44
2024/03/15 10:17:23;;;;;;;;;;;22.70;99.90;;;;;;5072448;28;20017;-44
2024/03/15 10:19:49;;;;;;;6.13;3.92;;;22.70;99.90;;;;;;5072020;28;19927;-43
2024/03/15 10:22:14;;;;;;;5.60;3.78;;;22.80;99.90;;;;;;5072004;28;20024;-43
2024/03/15 10:24:40;;;;;;;6.55;4.07;;;22.80;99.90;;;;;;5072106;28;20417;-45
2024/03/15 10:27:14;;;;;;;7.03;3.60;;;22.80;99.90;;;;;;5071865;28;20024;-44
2024/03/15 10:29:40;;;;;;;6.55;3.83;;;22.80;99.90;;;;;;5071748;28;20037;-43
2024/03/15 10:32:11;;;;;;;5.45;3.63;;;22.80;99.90;;;;;;5071850;28;20104;-44
2024/03/15 10:34:37;;;;;;;5.82;3.58;;;22.90;99.90;;;;;;5071913;28;20567;-44
2024/03/15 10:37:10;;;;;;;4.25;3.83;;;22.90;99.90;;;;;;5071752;28;20423;-45
2024/03/15 10:39:36;;;;;;;6.47;3.60;;;22.90;99.90;;;;;;5071921;28;20024;-45
2024/03/15 10:42:02;;;;;;;5.32;2.90;;;23.00;99.90;;;;;;5053760;28;20388;-44
2024/03/15 10:44:29;;;;;;;6.20;3.60;;;23.00;99.90;;;;;;5071578;28;20028;-44
2024/03/15 10:46:55;;;;;;;5.70;3.40;;;23.00;99.90;;;;;;5071601;28;20104;-44
2024/03/15 10:49:22;;;;;;;8.23;3.35;;;23.00;99.90;;;;;;5071595;28;20065;-44
2024/03/15 10:51:50;;;;;;;6.43;3.45;;;23.00;99.90;;;;;;5071941;28;20021;-45
2024/03/15 10:54:19;;;;;;;7.88;3.67;;;23.10;99.90;;;;;;5073290;28;20028;-44
2024/03/15 10:56:47;;;;;;;8.85;3.53;;;23.10;99.90;;;;;;5075421;28;20035;-44
2024/03/15 10:59:13;;;;;;;5.55;3.42;;;23.20;99.90;;;;;;5074065;28;20112;-44
2024/03/15 11:01:40;;;;;;;6.07;3.30;;;23.20;99.90;;;;;;5074931;28;20095;-45
2024/03/15 11:04:12;;;;;;;10.27;3.63;;;23.20;99.90;;;;;;5075431;28;20089;-44
2024/03/15 11:06:44;;;;;;;9.35;3.90;;;23.20;99.90;;;;;;5072867;28;20362;-44
2024/03/15 11:09:21;;;;;;;8.07;3.42;;;23.20;99.90;;;;;;5075035;28;20036;-47
2024/03/15 11:12:05;;;;;;;7.57;2.60;;;23.30;99.90;;;;;;5075283;28;20051;-44
2024/03/15 11:14:34;;;;;;;6.57;3.13;;;23.30;99.90;;;;;;5075090;28;20545;-45
2024/03/15 11:17:03;;;;;;;6.10;2.90;;;23.30;99.90;;;;;;5075104;28;20021;-45
2024/03/15 11:19:39;;;;;;;5.70;3.08;;;23.40;99.90;;;;;;5075163;28;20103;-45
2024/03/15 11:22:05;;;;;;;4.38;2.95;;;23.40;99.90;;;;;;5075186;28;20091;-44
2024/03/15 11:24:41;;;;;;;7.55;3.22;;;23.40;99.90;;;;;;5075067;28;20033;-44
2024/03/15 11:27:15;;;;;;;8.57;3.42;;;23.40;99.90;;;;;;5075233;28;20025;-44
2024/03/15 11:29:45;;;;;;;5.38;2.95;;;23.50;99.90;;;;;;5073515;28;20033;-45
2024/03/15 11:32:11;;;;;;;6.28;3.20;;;23.50;99.90;;;;;;5074710;28;20025;-46
2024/03/15 11:34:39;;;;;;;6.53;2.72;;;23.50;99.90;;;;;;5075043;28;20137;-45
2024/03/15 11:37:10;;;;;;;;;;;23.60;99.90;;;;;;5075163;28;20056;-45
2024/03/15 11:39:36;;;;;;;8.60;2.70;;;23.60;99.90;;;;;;5089833;28;19908;-45
2024/03/15 11:42:02;;;;;;;6.15;2.83;;;23.70;99.90;;;;;;5094866;28;20031;-44
2024/03/15 11:44:29;;;;;;;14.57;2.97;;;23.60;99.90;;;;;;5094903;28;20024;-45
2024/03/15 11:46:55;;;;;;;4.72;2.60;;;23.70;99.90;;;;;;5093587;28;20024;-44
2024/03/15 11:49:20;;;;;;;5.35;2.92;;;23.70;99.90;;;;;;5094766;28;20028;-45
2024/03/15 11:51:57;;;;;;;5.65;2.95;;;23.70;99.90;;;;;;5094776;28;20017;-45
2024/03/15 11:54:23;;;;;;;4.90;2.70;;;23.70;99.90;;;;;;5093102;28;20035;-43
2024/03/15 11:56:57;;;;;;;6.35;3.58;;;23.80;99.90;;;;;;5094671;28;20403;-45
2024/03/15 11:59:25;;;;;;;6.65;3.95;;;23.80;99.90;;;;;;5094690;28;20494;-43
2024/03/15 12:01:50;;;;;;;;;;;23.80;99.90;;;;;;5094839;28;20078;-43
2024/03/15 12:04:16;;;;;;;9.68;4.03;;;23.90;99.90;;;;;;5093887;28;19943;-44
2024/03/15 12:06:43;;;;;;;12.57;4.93;;;23.90;99.90;;;;;;5094696;28;20081;-44
2024/03/15 12:09:15;;;;;;;8.30;5.07;;;23.90;99.90;;;;;;5094669;28;20391;-45
2024/03/15 12:11:42;;;;;;;6.80;4.32;;;24.00;99.90;;;;;;5094647;28;20024;-45
2024/03/15 12:14:12;;;;;;;15.80;5.30;;;24.00;99.90;;;;;;5094494;28;20024;-43
2024/03/15 12:16:44;;;;;;;5.80;3.63;;;24.00;99.90;;;;;;5094225;28;20112;-44
2024/03/15 12:19:14;;;;;;;7.25;4.72;;;24.00;99.90;;;;;;5094496;28;20028;-43
2024/03/15 12:21:41;;;;;;;6.32;3.78;;;24.00;99.90;;;;;;5094434;28;20027;-45
2024/03/15 12:24:09;;;;;;;11.07;5.85;;;24.00;99.90;;;;;;5094188;28;20024;-45
2024/03/15 12:26:35;;;;;;;10.43;6.85;;;24.10;99.90;;;;;;5094004;28;20024;-46
2024/03/15 12:29:02;;;;;;;11.30;5.90;;;24.10;99.90;;;;;;5094152;28;20040;-45
2024/03/15 12:31:28;;;;;;;10.65;4.88;;;24.10;99.90;;;;;;5094055;28;20055;-45
2024/03/15 12:33:55;;;;;;;7.18;2.83;;;24.10;99.90;;;;;;5094014;28;20111;-45
2024/03/15 12:36:21;;;;;;;11.02;3.40;;;24.10;99.90;;;;;;5093983;28;20016;-46
2024/03/15 12:38:47;;;;;;;8.73;3.92;;;24.10;99.90;;;;;;5093844;28;20020;-46
2024/03/15 12:41:13;;;;;;;7.32;2.92;;;24.10;99.90;;;;;;5094075;28;20024;-45
2024/03/15 12:43:39;;;;;;;6.45;4.30;;;24.10;99.90;;;;;;5093064;28;20025;-48
2024/03/15 12:46:09;;;;;;;7.47;3.95;;;24.10;99.90;;;;;;5091582;28;20028;-46
2024/03/15 12:48:35;;;;;;;6.80;4.50;;;24.10;99.90;;;;;;5093046;28;20047;-48
2024/03/15 12:51:03;;;;;;;7.85;4.38;;;24.10;99.90;;;;;;5093130;28;20038;-46
2024/03/15 12:53:29;;;;;;;9.10;4.35;;;24.10;99.90;;;;;;5090631;28;20087;-46